createdAt,value
2022-08-12T00:00:20.781Z,19.39
2022-08-12T00:03:06.345Z,19.37
2022-08-12T00:06:01.970Z,19.46
2022-08-12T00:08:55.100Z,19.40
2022-08-12T00:11:42.317Z,19.38
2022-08-12T00:14:27.922Z,19.39
2022-08-12T00:17:14.176Z,19.19
2022-08-12T00:19:59.379Z,19.24
2022-08-12T00:22:45.755Z,19.19
2022-08-12T00:25:55.794Z,19.13
2022-08-12T00:28:46.718Z,19.13
2022-08-12T00:31:32.636Z,19.12
2022-08-12T00:34:18.038Z,19.15
2022-08-12T00:37:14.254Z,19.17
2022-08-12T00:40:01.076Z,19.10
2022-08-12T00:42:34.623Z,19.17
2022-08-12T00:45:01.308Z,19.16
2022-08-12T00:47:27.883Z,19.24
2022-08-12T00:49:55.898Z,19.24
2022-08-12T00:52:24.126Z,19.11
2022-08-12T00:54:59.076Z,19.11
2022-08-12T00:57:36.748Z,19.10
2022-08-12T01:00:17.340Z,19.11
2022-08-12T01:02:47.182Z,19.08
2022-08-12T01:05:35.558Z,18.94
2022-08-12T01:08:21.310Z,18.84
2022-08-12T01:11:09.564Z,18.79
2022-08-12T01:13:41.094Z,18.82
2022-08-12T01:16:09.329Z,18.88
2022-08-12T01:18:39.760Z,18.98
2022-08-12T01:21:09.296Z,18.96
2022-08-12T01:23:45.494Z,19.05
2022-08-12T01:26:18.130Z,19.01
2022-08-12T01:28:48.861Z,19.13
2022-08-12T01:31:19.097Z,19.27
2022-08-12T01:34:35.840Z,19.36
2022-08-12T01:36:59.616Z,19.35
2022-08-12T01:39:32.373Z,19.39
2022-08-12T01:42:07.414Z,19.23
2022-08-12T01:44:34.820Z,19.06
2022-08-12T01:47:41.122Z,19.02
2022-08-12T01:50:26.586Z,18.92
2022-08-12T01:53:11.285Z,18.85
2022-08-12T01:55:45.336Z,18.99
2022-08-12T01:58:20.886Z,19.01
2022-08-12T02:01:11.474Z,19.02
2022-08-12T02:04:13.619Z,18.93
2022-08-12T02:07:07.380Z,19.02
2022-08-12T02:10:49.869Z,19.10
2022-08-12T02:13:43.624Z,19.16
2022-08-12T02:16:32.878Z,19.11
2022-08-12T02:19:37.292Z,19.21
2022-08-12T02:22:12.239Z,19.09
2022-08-12T02:24:42.654Z,19.03
2022-08-12T02:27:12.822Z,19.02
2022-08-12T02:29:40.924Z,18.99
2022-08-12T02:32:08.689Z,19.00
2022-08-12T02:34:35.705Z,18.88
2022-08-12T02:37:04.015Z,18.95
2022-08-12T02:39:33.928Z,18.75
2022-08-12T02:42:04.774Z,18.75
2022-08-12T02:44:37.462Z,18.75
2022-08-12T02:47:06.543Z,18.82
2022-08-12T02:49:39.967Z,18.87
2022-08-12T02:52:10.279Z,18.66
2022-08-12T02:54:37.922Z,18.64
2022-08-12T02:57:06.311Z,18.53
2022-08-12T02:59:35.691Z,18.52
2022-08-12T03:02:04.198Z,18.44
2022-08-12T03:04:44.575Z,18.27
2022-08-12T03:07:18.326Z,18.15
2022-08-12T03:10:04.397Z,18.16
2022-08-12T03:12:36.017Z,18.10
2022-08-12T03:15:13.012Z,17.97
2022-08-12T03:18:26.214Z,17.86
2022-08-12T03:20:49.332Z,17.73
2022-08-12T03:23:29.317Z,17.72
2022-08-12T03:26:01.832Z,17.60
2022-08-12T03:28:49.962Z,17.63
2022-08-12T03:31:29.859Z,17.63
2022-08-12T03:34:03.267Z,17.59
2022-08-12T03:36:35.793Z,17.65
2022-08-12T03:39:15.490Z,17.66
2022-08-12T03:41:54.523Z,17.70
2022-08-12T03:44:45.583Z,17.68
2022-08-12T03:47:38.029Z,17.61
2022-08-12T03:50:23.434Z,17.68
2022-08-12T03:53:08.719Z,17.64
2022-08-12T03:55:54.657Z,17.54
2022-08-12T03:58:40.327Z,17.57
2022-08-12T04:01:07.907Z,17.54
2022-08-12T04:03:52.694Z,17.50
2022-08-12T04:06:34.521Z,17.49
2022-08-12T04:09:16.627Z,17.35
2022-08-12T04:12:03.902Z,17.32
2022-08-12T04:14:33.098Z,17.27
2022-08-12T04:17:00.367Z,17.40
2022-08-12T04:19:28.225Z,17.38
2022-08-12T04:22:01.721Z,17.50
2022-08-12T04:24:35.471Z,17.42
2022-08-12T04:27:05.716Z,17.39
2022-08-12T04:30:21.440Z,17.46
2022-08-12T04:32:19.332Z,17.44
2022-08-12T04:34:46.179Z,17.44
2022-08-12T04:37:13.520Z,17.47
2022-08-12T04:39:40.686Z,17.54
2022-08-12T04:42:07.851Z,17.51
2022-08-12T04:44:34.500Z,17.38
2022-08-12T04:47:01.391Z,17.38
2022-08-12T04:49:29.021Z,17.31
2022-08-12T04:51:59.373Z,17.34
2022-08-12T04:54:27.474Z,17.44
2022-08-12T04:57:03.236Z,17.48
2022-08-12T04:59:46.892Z,17.62
2022-08-12T05:02:21.635Z,17.51
2022-08-12T05:04:55.750Z,17.39
2022-08-12T05:07:24.442Z,17.48
2022-08-12T05:09:59.437Z,17.22
2022-08-12T05:12:34.290Z,17.37
2022-08-12T05:15:00.941Z,17.34
2022-08-12T05:17:28.263Z,17.42
2022-08-12T05:19:57.150Z,17.52
2022-08-12T05:22:25.683Z,17.68
2022-08-12T05:24:52.701Z,17.85
2022-08-12T05:27:19.543Z,17.92
2022-08-12T05:30:08.162Z,18.10
2022-08-12T05:32:36.845Z,18.27
2022-08-12T05:35:06.901Z,18.35
2022-08-12T05:37:34.975Z,18.43
2022-08-12T05:40:09.906Z,18.48
2022-08-12T05:42:37.862Z,18.67
2022-08-12T05:45:05.005Z,18.80
2022-08-12T05:47:44.839Z,18.89
2022-08-12T05:50:18.921Z,18.98
2022-08-12T05:52:45.607Z,18.91
2022-08-12T05:55:14.733Z,18.89
2022-08-12T05:57:41.324Z,19.02
2022-08-12T06:00:08.531Z,19.07
2022-08-12T06:02:35.805Z,19.12
2022-08-12T06:05:02.787Z,19.25
2022-08-12T06:08:00.476Z,19.47
2022-08-12T06:10:32.457Z,19.67
2022-08-12T06:13:05.329Z,19.86
2022-08-12T06:15:34.812Z,20.05
2022-08-12T06:18:15.997Z,20.16
2022-08-12T06:20:43.533Z,20.27
2022-08-12T06:23:11.870Z,20.30
2022-08-12T06:25:38.846Z,20.43
2022-08-12T06:28:15.808Z,20.66
2022-08-12T06:30:42.417Z,20.79
2022-08-12T06:33:22.123Z,20.89
2022-08-12T06:35:51.251Z,21.13
2022-08-12T06:38:25.208Z,21.22
2022-08-12T06:41:19.633Z,21.45
2022-08-12T06:44:05.725Z,21.46
2022-08-12T06:46:36.625Z,21.51
2022-08-12T06:49:03.238Z,21.59
2022-08-12T06:51:32.444Z,21.66
2022-08-12T06:54:00.595Z,22.03
2022-08-12T06:56:59.664Z,22.33
2022-08-12T06:59:15.742Z,22.56
2022-08-12T07:01:50.767Z,22.44
2022-08-12T07:04:36.743Z,22.68
2022-08-12T07:07:07.388Z,22.80
2022-08-12T07:10:00.108Z,23.22
2022-08-12T07:12:21.949Z,23.36
2022-08-12T07:14:51.596Z,23.67
2022-08-12T07:17:18.725Z,23.79
2022-08-12T07:19:48.632Z,23.99
2022-08-12T07:22:16.429Z,24.24
2022-08-12T07:24:43.324Z,24.13
2022-08-12T07:27:10.132Z,23.99
2022-08-12T07:30:03.734Z,24.33
2022-08-12T07:32:25.713Z,24.29
2022-08-12T07:34:56.556Z,23.86
2022-08-12T07:37:23.586Z,23.58
2022-08-12T07:39:59.474Z,23.53
2022-08-12T07:42:27.918Z,23.71
2022-08-12T07:44:56.014Z,23.61
2022-08-12T07:47:23.282Z,23.42
2022-08-12T07:50:04.936Z,23.64
2022-08-12T07:52:34.765Z,23.71
2022-08-12T07:55:02.216Z,23.51
2022-08-12T07:57:29.008Z,23.53
2022-08-12T07:59:56.179Z,23.57
2022-08-12T08:02:26.689Z,23.61
2022-08-12T08:04:57.430Z,23.50
2022-08-12T08:07:25.840Z,23.06
2022-08-12T08:09:59.239Z,23.37
2022-08-12T08:12:48.809Z,23.46
2022-08-12T08:15:16.425Z,23.96
2022-08-12T08:17:59.744Z,24.41
2022-08-12T08:20:30.729Z,24.19
2022-08-12T08:22:59.504Z,24.20
2022-08-12T08:25:36.630Z,23.94
2022-08-12T08:28:17.195Z,23.36
2022-08-12T08:30:47.945Z,23.28
2022-08-12T08:34:01.511Z,23.60
2022-08-12T08:36:05.219Z,24.23
2022-08-12T08:38:35.069Z,24.22
2022-08-12T08:42:15.826Z,24.60
2022-08-12T08:44:11.233Z,24.38
2022-08-12T08:46:39.141Z,24.40
2022-08-12T08:49:06.413Z,24.41
2022-08-12T08:51:33.413Z,24.13
2022-08-12T08:54:00.040Z,24.08
2022-08-12T08:56:29.270Z,23.91
2022-08-12T08:58:57.587Z,23.92
2022-08-12T09:01:24.386Z,24.22
2022-08-12T09:05:08.963Z,24.54
2022-08-12T09:06:41.848Z,24.88
2022-08-12T09:09:13.419Z,24.86
2022-08-12T09:12:11.607Z,24.66
2022-08-12T09:14:47.141Z,24.82
2022-08-12T09:17:20.971Z,24.96
2022-08-12T09:19:57.523Z,25.23
2022-08-12T09:22:29.290Z,25.26
2022-08-12T09:27:57.904Z,25.40
2022-08-12T09:30:41.127Z,25.15
2022-08-12T09:33:15.134Z,25.00
2022-08-12T09:36:04.141Z,24.96
2022-08-12T09:38:35.163Z,24.77
2022-08-12T09:42:33.858Z,24.97
2022-08-12T09:44:38.189Z,25.19
2022-08-12T09:46:55.227Z,25.41
2022-08-12T09:49:25.109Z,25.35
2022-08-12T09:51:55.361Z,25.23
2022-08-12T09:54:34.301Z,25.28
2022-08-12T09:58:45.471Z,25.67
2022-08-12T10:00:16.499Z,26.14
2022-08-12T10:03:32.694Z,26.54
2022-08-12T10:06:27.961Z,26.48
2022-08-12T10:08:52.232Z,26.82
2022-08-12T10:12:11.511Z,26.33
2022-08-12T10:14:34.559Z,25.99
2022-08-12T10:17:02.433Z,26.75
2022-08-12T10:19:36.564Z,27.10
2022-08-12T10:22:16.612Z,27.29
2022-08-12T10:25:04.843Z,27.10
2022-08-12T10:28:05.289Z,27.29
2022-08-12T10:30:41.762Z,27.44
2022-08-12T10:33:19.260Z,27.08
2022-08-12T10:35:55.588Z,27.17
2022-08-12T10:38:34.509Z,27.20
2022-08-12T10:41:58.874Z,27.45
2022-08-12T10:44:12.539Z,27.80
2022-08-12T10:46:46.013Z,27.66
2022-08-12T10:50:02.381Z,27.22
2022-08-12T10:52:34.726Z,27.26
2022-08-12T10:54:56.144Z,26.85
2022-08-12T10:58:27.167Z,27.01
2022-08-12T11:00:34.503Z,27.40
2022-08-12T11:04:27.483Z,27.66
2022-08-12T11:07:06.905Z,27.59
2022-08-12T11:08:42.855Z,27.33
2022-08-12T11:11:17.659Z,27.76
2022-08-12T11:13:54.899Z,27.72
2022-08-12T11:16:27.709Z,28.12
2022-08-12T11:18:57.097Z,28.23
2022-08-12T11:21:58.031Z,28.43
2022-08-12T11:24:25.673Z,28.40
2022-08-12T11:26:58.605Z,28.80
2022-08-12T11:29:28.018Z,28.77
2022-08-12T11:32:14.606Z,28.92
2022-08-12T11:34:52.451Z,29.15
2022-08-12T11:37:26.202Z,29.35
2022-08-12T11:42:36.557Z,28.86
2022-08-12T11:45:10.381Z,28.62
2022-08-12T11:47:40.314Z,28.75
2022-08-12T11:50:07.752Z,28.45
2022-08-12T11:52:55.524Z,27.93
2022-08-12T11:55:23.331Z,27.84
2022-08-12T11:58:08.648Z,27.79
2022-08-12T12:03:41.590Z,27.48
2022-08-12T12:06:16.897Z,27.32
2022-08-12T12:08:52.961Z,27.28
2022-08-12T12:11:21.508Z,27.26
2022-08-12T12:14:07.630Z,26.86
2022-08-12T12:16:38.154Z,27.06
2022-08-12T12:19:06.829Z,27.13
2022-08-12T12:21:47.627Z,27.01
2022-08-12T12:24:20.885Z,27.30
2022-08-12T12:27:00.345Z,27.42
2022-08-12T12:30:18.007Z,28.03
2022-08-12T12:32:18.399Z,27.96
2022-08-12T12:35:14.210Z,27.74
2022-08-12T12:38:05.025Z,28.00
2022-08-12T12:40:19.259Z,28.08
2022-08-12T12:42:57.760Z,28.38
2022-08-12T12:45:32.368Z,28.32
2022-08-12T12:48:11.506Z,27.84
2022-08-12T12:51:22.277Z,26.84
2022-08-12T12:54:06.949Z,26.54
2022-08-12T12:56:38.350Z,26.40
2022-08-12T12:59:05.992Z,26.29
2022-08-12T13:01:38.290Z,26.12
2022-08-12T13:04:12.394Z,26.00
2022-08-12T13:06:42.096Z,25.80
2022-08-12T13:09:13.207Z,25.95
2022-08-12T13:11:42.010Z,26.13
2022-08-12T13:14:29.657Z,26.55
2022-08-12T13:17:03.615Z,26.72
2022-08-12T13:19:37.530Z,26.87
2022-08-12T13:22:18.573Z,27.06
2022-08-12T13:24:46.344Z,27.35
2022-08-12T13:27:20.952Z,27.44
2022-08-12T13:29:47.520Z,27.41
2022-08-12T13:32:19.874Z,27.29
2022-08-12T13:35:04.703Z,27.20
2022-08-12T13:37:55.797Z,27.51
2022-08-12T13:40:27.804Z,27.42
2022-08-12T13:42:58.935Z,27.17
2022-08-12T13:45:27.062Z,26.87
2022-08-12T13:48:00.009Z,26.43
2022-08-12T13:50:33.858Z,26.47
2022-08-12T13:53:23.146Z,26.44
2022-08-12T13:56:01.277Z,26.33
2022-08-12T13:58:32.787Z,26.75
2022-08-12T14:01:04.668Z,26.83
2022-08-12T14:03:51.033Z,26.64
2022-08-12T14:06:17.888Z,26.34
2022-08-12T14:08:45.402Z,26.28
2022-08-12T14:11:16.927Z,26.15
2022-08-12T14:14:05.504Z,25.84
2022-08-12T14:16:37.693Z,25.62
2022-08-12T14:19:25.570Z,25.77
2022-08-12T14:22:00.741Z,25.81
2022-08-12T14:24:35.610Z,25.51
2022-08-12T14:27:03.005Z,25.42
2022-08-12T14:29:55.772Z,25.56
2022-08-12T14:32:18.103Z,25.74
2022-08-12T14:34:49.100Z,25.98
2022-08-12T14:37:56.367Z,26.06
2022-08-12T14:40:04.074Z,26.12
2022-08-12T14:42:30.707Z,25.81
2022-08-12T14:44:59.476Z,25.85
2022-08-12T14:47:26.931Z,25.92
2022-08-12T14:50:33.969Z,26.12
2022-08-12T14:58:20.574Z,25.85
2022-08-12T15:01:07.245Z,25.98
2022-08-12T15:03:52.826Z,25.98
2022-08-12T15:06:44.647Z,26.02
2022-08-12T15:09:12.020Z,26.35
2022-08-12T15:11:54.355Z,26.30
2022-08-12T15:14:26.654Z,26.29
2022-08-12T15:16:54.178Z,26.11
2022-08-12T15:20:31.955Z,25.93
2022-08-12T15:22:38.340Z,25.96
2022-08-12T15:24:54.219Z,25.84
2022-08-12T15:27:22.517Z,25.64
2022-08-12T15:30:07.927Z,25.77
2022-08-12T15:32:34.912Z,25.67
2022-08-12T15:35:01.702Z,25.54
2022-08-12T15:38:08.728Z,25.55
2022-08-12T15:40:15.447Z,25.26
2022-08-12T15:43:00.767Z,25.29
2022-08-12T15:45:32.181Z,25.33
2022-08-12T15:48:04.524Z,25.40
2022-08-12T15:50:45.578Z,25.38
2022-08-12T15:53:37.371Z,25.53
2022-08-12T15:56:07.941Z,25.69
2022-08-12T15:58:43.699Z,25.71
2022-08-12T16:01:15.127Z,25.53
2022-08-12T16:04:00.487Z,25.47
2022-08-12T16:06:52.072Z,25.43
2022-08-12T16:09:21.739Z,25.42
2022-08-12T16:11:48.514Z,25.45
2022-08-12T16:14:16.064Z,25.35
2022-08-12T16:16:43.145Z,25.27
2022-08-12T16:20:03.803Z,25.14
2022-08-12T16:22:07.191Z,25.09
2022-08-12T16:24:42.407Z,25.02
2022-08-12T16:27:09.988Z,24.93
2022-08-12T16:29:53.348Z,24.83
2022-08-12T16:32:24.020Z,24.76
2022-08-12T16:34:54.929Z,24.74
2022-08-12T16:37:22.825Z,24.59
2022-08-12T16:40:04.888Z,24.58
2022-08-12T16:42:42.039Z,24.46
2022-08-12T16:47:58.981Z,24.33
2022-08-12T16:50:31.283Z,24.28
2022-08-12T16:53:03.312Z,24.18
2022-08-12T16:55:42.216Z,24.12
2022-08-12T16:58:18.472Z,23.99
2022-08-12T17:00:55.335Z,23.93
2022-08-12T17:03:28.877Z,23.92
2022-08-12T17:05:57.103Z,23.84
2022-08-12T17:08:29.105Z,23.88
2022-08-12T17:10:56.396Z,23.84
2022-08-12T17:13:26.157Z,23.68
2022-08-12T17:16:05.546Z,23.68
2022-08-12T17:18:42.807Z,23.58
2022-08-12T17:21:11.931Z,23.58
2022-08-12T17:23:48.394Z,23.52
2022-08-12T17:26:30.859Z,23.55
2022-08-12T17:28:59.904Z,23.43
2022-08-12T17:32:01.101Z,23.41
2022-08-12T17:34:35.930Z,23.32
2022-08-12T17:37:06.286Z,23.29
2022-08-12T17:40:12.098Z,23.27
2022-08-12T17:42:32.931Z,23.27
2022-08-12T17:45:17.557Z,23.29
2022-08-12T17:48:00.967Z,23.24
2022-08-12T17:50:33.129Z,23.25
2022-08-12T17:53:03.114Z,23.21
2022-08-12T17:55:44.344Z,23.18
2022-08-12T17:58:15.096Z,23.25
2022-08-12T18:00:48.049Z,23.24
2022-08-12T18:03:57.106Z,23.16
2022-08-12T18:06:14.185Z,23.11
2022-08-12T18:08:53.653Z,23.15
2022-08-12T18:12:05.991Z,23.12
2022-08-12T18:14:29.055Z,23.12
2022-08-12T18:17:00.346Z,23.15
2022-08-12T18:19:34.072Z,23.02
2022-08-12T18:22:17.612Z,22.88
2022-08-12T18:25:00.814Z,22.72
2022-08-12T18:27:44.705Z,22.38
2022-08-12T18:30:21.067Z,22.26
2022-08-12T18:33:03.544Z,22.08
2022-08-12T18:35:47.335Z,22.00
2022-08-12T18:38:21.874Z,21.84
2022-08-12T18:41:09.680Z,21.79
2022-08-12T18:44:00.219Z,21.67
2022-08-12T18:46:53.667Z,21.63
2022-08-12T18:49:39.178Z,21.46
2022-08-12T18:52:08.684Z,21.26
2022-08-12T18:54:52.239Z,21.19
2022-08-12T18:58:07.041Z,21.09
2022-08-12T19:00:22.293Z,20.98
2022-08-12T19:02:55.752Z,20.95
2022-08-12T19:05:53.627Z,20.97
2022-08-12T19:08:12.652Z,20.88
2022-08-12T19:10:42.467Z,20.95
2022-08-12T19:13:36.190Z,20.98
2022-08-12T19:16:10.805Z,20.94
2022-08-12T19:18:40.967Z,21.01
2022-08-12T19:21:16.689Z,21.05
2022-08-12T19:23:44.184Z,21.07
2022-08-12T19:26:12.568Z,21.15
2022-08-12T19:28:39.781Z,21.26
2022-08-12T19:31:56.301Z,21.32
2022-08-12T19:37:27.354Z,21.41
2022-08-12T19:40:09.770Z,21.43
2022-08-12T19:42:53.567Z,21.48
2022-08-12T19:45:20.984Z,21.45
2022-08-12T19:47:49.037Z,21.52
2022-08-12T19:50:20.258Z,21.53
2022-08-12T19:52:47.792Z,21.62
2022-08-12T19:55:21.468Z,21.59
2022-08-12T19:58:02.726Z,21.59
2022-08-12T20:00:31.328Z,21.57
2022-08-12T20:03:00.924Z,21.53
2022-08-12T20:06:07.103Z,21.53
2022-08-12T20:08:26.410Z,21.40
2022-08-12T20:12:12.527Z,21.44
2022-08-12T20:13:49.470Z,21.48
2022-08-12T20:16:50.745Z,21.53
2022-08-12T20:19:16.001Z,21.35
2022-08-12T20:21:43.565Z,21.32
2022-08-12T20:24:12.184Z,21.20
2022-08-12T20:26:42.507Z,21.00
2022-08-12T20:29:12.381Z,21.00
2022-08-12T20:31:41.475Z,20.85
2022-08-12T20:34:12.063Z,20.81
2022-08-12T20:36:44.592Z,20.70
2022-08-12T20:39:35.979Z,20.75
2022-08-12T20:42:07.088Z,20.69
2022-08-12T20:44:39.891Z,20.62
2022-08-12T20:47:20.160Z,20.71
2022-08-12T20:49:55.950Z,20.74
2022-08-12T20:52:29.063Z,20.73
2022-08-12T20:54:57.202Z,20.76
2022-08-12T20:57:24.092Z,20.89
2022-08-12T20:59:52.595Z,20.87
2022-08-12T21:02:24.774Z,20.85
2022-08-12T21:05:19.969Z,20.66
2022-08-12T21:07:52.174Z,20.75
2022-08-12T21:10:20.970Z,20.72
2022-08-12T21:12:49.082Z,20.77
2022-08-12T21:15:23.018Z,20.83
2022-08-12T21:18:09.262Z,20.95
2022-08-12T21:20:43.205Z,20.93
2022-08-12T21:23:10.565Z,20.82
2022-08-12T21:25:45.725Z,20.62
2022-08-12T21:28:14.337Z,20.40
2022-08-12T21:31:11.760Z,20.50
2022-08-12T21:33:32.174Z,20.47
2022-08-12T21:36:22.569Z,20.43
2022-08-12T21:38:51.250Z,20.45
2022-08-12T21:41:20.370Z,20.40
2022-08-12T21:43:50.476Z,20.49
2022-08-12T21:46:33.760Z,20.45
2022-08-12T21:49:04.784Z,20.51
2022-08-12T21:51:50.302Z,20.51
2022-08-12T21:54:24.828Z,20.52
2022-08-12T21:56:54.034Z,20.51
2022-08-12T21:59:21.957Z,20.32
2022-08-12T22:01:49.593Z,20.33
2022-08-12T22:04:36.305Z,20.37
2022-08-12T22:07:03.922Z,20.23
2022-08-12T22:09:42.680Z,20.30
2022-08-12T22:12:29.344Z,20.22
2022-08-12T22:14:55.977Z,20.12
2022-08-12T22:17:49.517Z,20.21
2022-08-12T22:20:18.027Z,20.23
2022-08-12T22:22:56.317Z,20.17
2022-08-12T22:25:27.894Z,20.22
2022-08-12T22:28:13.058Z,20.11
2022-08-12T22:30:59.489Z,20.07
2022-08-12T22:33:26.188Z,20.09
2022-08-12T22:35:59.468Z,19.95
2022-08-12T22:38:29.144Z,20.04
2022-08-12T22:41:00.959Z,20.05
2022-08-12T22:43:59.717Z,20.04
2022-08-12T22:46:53.530Z,19.84
2022-08-12T22:49:37.018Z,19.81
2022-08-12T22:52:18.282Z,19.80
2022-08-12T22:54:58.053Z,19.62
2022-08-12T22:57:49.183Z,19.56
2022-08-12T23:00:24.423Z,19.59
2022-08-12T23:02:59.312Z,19.55
2022-08-12T23:05:56.686Z,19.43
2022-08-12T23:08:22.037Z,19.45
2022-08-12T23:10:49.013Z,19.55
2022-08-12T23:13:43.143Z,19.65
2022-08-12T23:16:28.362Z,19.59
2022-08-12T23:19:01.838Z,19.49
2022-08-12T23:22:05.764Z,19.55
2022-08-12T23:24:38.541Z,19.52
2022-08-12T23:27:35.184Z,19.44
2022-08-12T23:30:18.740Z,19.54
2022-08-12T23:32:46.790Z,19.47
2022-08-12T23:35:22.568Z,19.54
2022-08-12T23:37:53.715Z,19.57
2022-08-12T23:40:24.609Z,19.72
2022-08-12T23:42:54.331Z,19.69
2022-08-12T23:45:31.660Z,19.66
2022-08-12T23:48:01.999Z,19.56
2022-08-12T23:50:34.125Z,19.65
2022-08-12T23:53:06.593Z,19.70
2022-08-12T23:55:45.716Z,19.74
2022-08-12T23:58:20.959Z,19.61
